sensor_id;sensor_type;location;lat;lon;timestamp;temperature;humidity
22161;DHT22;49035;48.812;11.762;2023-04-03T00:00:29;3.20;99.90
22161;DHT22;49035;48.812;11.762;2023-04-03T00:02:54;3.20;99.90
22161;DHT22;49035;48.812;11.762;2023-04-03T00:05:20;3.20;99.90
22161;DHT22;49035;48.812;11.762;2023-04-03T00:07:46;3.20;99.90
22161;DHT22;49035;48.812;11.762;2023-04-03T00:10:11;3.10;99.90
22161;DHT22;49035;48.812;11.762;2023-04-03T00:12:37;3.20;99.90
22161;DHT22;49035;48.812;11.762;2023-04-03T00:15:03;3.20;99.90
22161;DHT22;49035;48.812;11.762;2023-04-03T00:17:29;3.20;99.90
22161;DHT22;49035;48.812;11.762;2023-04-03T00:19:54;3.10;99.90
22161;DHT22;49035;48.812;11.762;2023-04-03T00:22:20;3.20;99.90
22161;DHT22;49035;48.812;11.762;2023-04-03T00:24:46;3.20;99.90
22161;DHT22;49035;48.812;11.762;2023-04-03T00:27:11;3.20;99.90
22161;DHT22;49035;48.812;11.762;2023-04-03T00:29:37;3.20;99.90
22161;DHT22;49035;48.812;11.762;2023-04-03T00:32:02;3.20;99.90
22161;DHT22;49035;48.812;11.762;2023-04-03T00:34:28;3.10;99.90
22161;DHT22;49035;48.812;11.762;2023-04-03T00:36:54;3.10;99.90
22161;DHT22;49035;48.812;11.762;2023-04-03T00:39:19;3.10;99.90
22161;DHT22;49035;48.812;11.762;2023-04-03T00:41:45;3.10;99.90
22161;DHT22;49035;48.812;11.762;2023-04-03T00:46:52;3.10;99.90
22161;DHT22;49035;48.812;11.762;2023-04-03T00:49:18;3.10;99.90
22161;DHT22;49035;48.812;11.762;2023-04-03T00:51:44;3.10;99.90
22161;DHT22;49035;48.812;11.762;2023-04-03T00:54:10;3.10;99.90
22161;DHT22;49035;48.812;11.762;2023-04-03T00:56:36;3.00;99.90
22161;DHT22;49035;48.812;11.762;2023-04-03T00:59:14;3.10;99.90
22161;DHT22;49035;48.812;11.762;2023-04-03T01:01:42;3.10;99.90
22161;DHT22;49035;48.812;11.762;2023-04-03T01:04:27;3.10;99.90
22161;DHT22;49035;48.812;11.762;2023-04-03T01:06:56;3.10;99.90
22161;DHT22;49035;48.812;11.762;2023-04-03T01:09:22;3.00;99.90
22161;DHT22;49035;48.812;11.762;2023-04-03T01:11:48;3.00;99.90
22161;DHT22;49035;48.812;11.762;2023-04-03T01:14:13;3.00;99.90
22161;DHT22;49035;48.812;11.762;2023-04-03T01:16:39;3.10;99.90
22161;DHT22;49035;48.812;11.762;2023-04-03T01:19:08;3.10;99.90
22161;DHT22;49035;48.812;11.762;2023-04-03T01:24:33;3.10;99.90
22161;DHT22;49035;48.812;11.762;2023-04-03T01:27:01;3.10;99.90
22161;DHT22;49035;48.812;11.762;2023-04-03T01:29:27;3.10;99.90
22161;DHT22;49035;48.812;11.762;2023-04-03T01:31:56;3.00;99.90
22161;DHT22;49035;48.812;11.762;2023-04-03T01:34:22;3.10;99.90
22161;DHT22;49035;48.812;11.762;2023-04-03T01:36:48;3.00;99.90
22161;DHT22;49035;48.812;11.762;2023-04-03T01:39:13;3.00;99.90
22161;DHT22;49035;48.812;11.762;2023-04-03T01:41:39;3.00;99.90
22161;DHT22;49035;48.812;11.762;2023-04-03T01:44:05;2.90;99.90
22161;DHT22;49035;48.812;11.762;2023-04-03T01:46:31;2.90;99.90
22161;DHT22;49035;48.812;11.762;2023-04-03T01:48:57;2.90;99.90
22161;DHT22;49035;48.812;11.762;2023-04-03T01:51:22;2.90;99.90
22161;DHT22;49035;48.812;11.762;2023-04-03T01:53:48;2.90;99.90
22161;DHT22;49035;48.812;11.762;2023-04-03T01:56:13;2.90;99.90
22161;DHT22;49035;48.812;11.762;2023-04-03T01:58:39;2.80;99.90
22161;DHT22;49035;48.812;11.762;2023-04-03T02:01:05;2.90;99.90
22161;DHT22;49035;48.812;11.762;2023-04-03T02:03:31;2.80;99.90
22161;DHT22;49035;48.812;11.762;2023-04-03T02:05:57;2.80;99.90
22161;DHT22;49035;48.812;11.762;2023-04-03T02:08:22;2.80;99.90
22161;DHT22;49035;48.812;11.762;2023-04-03T02:10:49;2.80;99.90
22161;DHT22;49035;48.812;11.762;2023-04-03T02:13:16;2.80;99.90
22161;DHT22;49035;48.812;11.762;2023-04-03T02:15:42;2.80;99.90
22161;DHT22;49035;48.812;11.762;2023-04-03T02:18:08;2.80;99.90
22161;DHT22;49035;48.812;11.762;2023-04-03T02:20:33;2.80;99.90
22161;DHT22;49035;48.812;11.762;2023-04-03T02:23:00;2.90;99.90
22161;DHT22;49035;48.812;11.762;2023-04-03T02:25:25;2.80;99.90
22161;DHT22;49035;48.812;11.762;2023-04-03T02:27:51;2.80;99.90
22161;DHT22;49035;48.812;11.762;2023-04-03T02:30:17;2.80;99.90
22161;DHT22;49035;48.812;11.762;2023-04-03T02:32:43;2.80;99.90
22161;DHT22;49035;48.812;11.762;2023-04-03T02:35:11;2.80;99.90
22161;DHT22;49035;48.812;11.762;2023-04-03T02:37:37;2.90;99.90
22161;DHT22;49035;48.812;11.762;2023-04-03T02:40:03;2.80;99.90
22161;DHT22;49035;48.812;11.762;2023-04-03T02:42:29;2.80;99.90
22161;DHT22;49035;48.812;11.762;2023-04-03T02:44:55;2.80;99.90
22161;DHT22;49035;48.812;11.762;2023-04-03T02:47:20;2.80;99.90
22161;DHT22;49035;48.812;11.762;2023-04-03T02:49:46;2.80;99.90
22161;DHT22;49035;48.812;11.762;2023-04-03T02:52:13;2.80;99.90
22161;DHT22;49035;48.812;11.762;2023-04-03T02:54:38;2.80;99.90
22161;DHT22;49035;48.812;11.762;2023-04-03T02:57:04;2.80;99.90
22161;DHT22;49035;48.812;11.762;2023-04-03T02:59:30;2.70;99.90
22161;DHT22;49035;48.812;11.762;2023-04-03T03:01:56;2.80;99.90
22161;DHT22;49035;48.812;11.762;2023-04-03T03:04:22;2.70;99.90
22161;DHT22;49035;48.812;11.762;2023-04-03T03:06:47;2.70;99.90
22161;DHT22;49035;48.812;11.762;2023-04-03T03:09:13;2.70;99.90
22161;DHT22;49035;48.812;11.762;2023-04-03T03:11:39;2.70;99.90
22161;DHT22;49035;48.812;11.762;2023-04-03T03:14:05;2.70;99.90
22161;DHT22;49035;48.812;11.762;2023-04-03T03:16:30;2.70;99.90
22161;DHT22;49035;48.812;11.762;2023-04-03T03:18:56;2.70;99.90
22161;DHT22;49035;48.812;11.762;2023-04-03T03:21:22;2.70;99.90
22161;DHT22;49035;48.812;11.762;2023-04-03T03:23:47;2.70;99.90
22161;DHT22;49035;48.812;11.762;2023-04-03T03:26:13;2.70;99.90
22161;DHT22;49035;48.812;11.762;2023-04-03T03:28:39;2.70;99.90
22161;DHT22;49035;48.812;11.762;2023-04-03T03:31:06;2.70;99.90
22161;DHT22;49035;48.812;11.762;2023-04-03T03:33:32;2.60;99.90
22161;DHT22;49035;48.812;11.762;2023-04-03T03:35:58;2.60;99.90
22161;DHT22;49035;48.812;11.762;2023-04-03T03:38:23;2.60;99.90
22161;DHT22;49035;48.812;11.762;2023-04-03T03:40:50;2.60;99.90
22161;DHT22;49035;48.812;11.762;2023-04-03T03:43:16;2.60;99.90
22161;DHT22;49035;48.812;11.762;2023-04-03T03:45:43;2.50;99.90
22161;DHT22;49035;48.812;11.762;2023-04-03T03:48:08;2.50;99.90
22161;DHT22;49035;48.812;11.762;2023-04-03T03:50:34;2.50;99.90
22161;DHT22;49035;48.812;11.762;2023-04-03T03:52:59;2.50;99.90
22161;DHT22;49035;48.812;11.762;2023-04-03T03:55:25;2.50;99.90
22161;DHT22;49035;48.812;11.762;2023-04-03T03:57:51;2.50;99.90
22161;DHT22;49035;48.812;11.762;2023-04-03T04:00:17;2.50;99.90
22161;DHT22;49035;48.812;11.762;2023-04-03T04:02:43;2.40;99.90
22161;DHT22;49035;48.812;11.762;2023-04-03T04:05:09;2.40;99.90
22161;DHT22;49035;48.812;11.762;2023-04-03T04:07:35;2.50;99.90
22161;DHT22;49035;48.812;11.762;2023-04-03T04:10:00;2.50;99.90
22161;DHT22;49035;48.812;11.762;2023-04-03T04:12:26;2.50;99.90
22161;DHT22;49035;48.812;11.762;2023-04-03T04:14:52;2.40;99.90
22161;DHT22;49035;48.812;11.762;2023-04-03T04:17:17;2.40;99.90
22161;DHT22;49035;48.812;11.762;2023-04-03T04:19:43;2.40;99.90
22161;DHT22;49035;48.812;11.762;2023-04-03T04:22:08;2.40;99.90
22161;DHT22;49035;48.812;11.762;2023-04-03T04:24:34;2.40;99.90
22161;DHT22;49035;48.812;11.762;2023-04-03T04:27:00;2.40;99.90
22161;DHT22;49035;48.812;11.762;2023-04-03T04:29:25;2.50;99.90
22161;DHT22;49035;48.812;11.762;2023-04-03T04:31:51;2.40;99.90
22161;DHT22;49035;48.812;11.762;2023-04-03T04:34:16;2.40;99.90
22161;DHT22;49035;48.812;11.762;2023-04-03T04:36:42;2.40;99.90
22161;DHT22;49035;48.812;11.762;2023-04-03T04:39:08;2.50;99.90
22161;DHT22;49035;48.812;11.762;2023-04-03T04:41:33;2.50;99.90
22161;DHT22;49035;48.812;11.762;2023-04-03T04:44:00;2.50;99.90
22161;DHT22;49035;48.812;11.762;2023-04-03T04:46:26;2.40;99.90
22161;DHT22;49035;48.812;11.762;2023-04-03T04:48:51;2.40;99.90
22161;DHT22;49035;48.812;11.762;2023-04-03T04:51:18;2.50;99.90
22161;DHT22;49035;48.812;11.762;2023-04-03T04:53:43;2.50;99.90
22161;DHT22;49035;48.812;11.762;2023-04-03T04:56:09;2.50;99.90
22161;DHT22;49035;48.812;11.762;2023-04-03T04:58:35;2.40;99.90
22161;DHT22;49035;48.812;11.762;2023-04-03T05:01:04;2.50;99.90
22161;DHT22;49035;48.812;11.762;2023-04-03T05:03:31;2.40;99.90
22161;DHT22;49035;48.812;11.762;2023-04-03T05:05:57;2.50;99.90
22161;DHT22;49035;48.812;11.762;2023-04-03T05:08:23;2.50;99.90
22161;DHT22;49035;48.812;11.762;2023-04-03T05:10:49;2.50;99.90
22161;DHT22;49035;48.812;11.762;2023-04-03T05:13:14;2.60;99.90
22161;DHT22;49035;48.812;11.762;2023-04-03T05:15:40;2.60;99.90
22161;DHT22;49035;48.812;11.762;2023-04-03T05:18:06;2.60;99.90
22161;DHT22;49035;48.812;11.762;2023-04-03T05:20:33;2.60;99.90
22161;DHT22;49035;48.812;11.762;2023-04-03T05:22:58;2.70;99.90
22161;DHT22;49035;48.812;11.762;2023-04-03T05:25:25;2.70;99.90
22161;DHT22;49035;48.812;11.762;2023-04-03T05:28:00;2.60;99.90
22161;DHT22;49035;48.812;11.762;2023-04-03T05:30:25;2.70;99.90
22161;DHT22;49035;48.812;11.762;2023-04-03T05:32:51;2.80;99.90
22161;DHT22;49035;48.812;11.762;2023-04-03T05:35:16;2.80;99.90
22161;DHT22;49035;48.812;11.762;2023-04-03T05:37:42;2.80;99.90
22161;DHT22;49035;48.812;11.762;2023-04-03T05:40:08;2.90;99.90
22161;DHT22;49035;48.812;11.762;2023-04-03T05:42:34;2.90;99.90
22161;DHT22;49035;48.812;11.762;2023-04-03T05:45:00;3.00;99.90
22161;DHT22;49035;48.812;11.762;2023-04-03T05:47:25;3.00;99.90
22161;DHT22;49035;48.812;11.762;2023-04-03T05:49:51;3.10;99.90
22161;DHT22;49035;48.812;11.762;2023-04-03T05:52:27;3.10;99.90
22161;DHT22;49035;48.812;11.762;2023-04-03T05:54:54;3.10;99.90
22161;DHT22;49035;48.812;11.762;2023-04-03T05:57:19;3.20;99.90
22161;DHT22;49035;48.812;11.762;2023-04-03T05:59:46;3.30;99.90
22161;DHT22;49035;48.812;11.762;2023-04-03T06:02:21;3.40;99.90
22161;DHT22;49035;48.812;11.762;2023-04-03T06:04:47;3.40;99.90
22161;DHT22;49035;48.812;11.762;2023-04-03T06:07:15;3.40;99.90
22161;DHT22;49035;48.812;11.762;2023-04-03T06:09:42;3.50;99.90
22161;DHT22;49035;48.812;11.762;2023-04-03T06:12:08;3.60;99.90
22161;DHT22;49035;48.812;11.762;2023-04-03T06:14:34;3.60;99.90
22161;DHT22;49035;48.812;11.762;2023-04-03T06:17:00;3.70;99.90
22161;DHT22;49035;48.812;11.762;2023-04-03T06:19:27;3.70;99.90
22161;DHT22;49035;48.812;11.762;2023-04-03T06:21:52;3.80;99.90
22161;DHT22;49035;48.812;11.762;2023-04-03T06:24:18;3.70;99.90
22161;DHT22;49035;48.812;11.762;2023-04-03T06:26:45;3.80;99.90
22161;DHT22;49035;48.812;11.762;2023-04-03T06:29:11;3.80;99.90
22161;DHT22;49035;48.812;11.762;2023-04-03T06:31:37;3.70;99.90
22161;DHT22;49035;48.812;11.762;2023-04-03T06:34:03;3.90;99.90
22161;DHT22;49035;48.812;11.762;2023-04-03T06:36:29;3.90;99.90
22161;DHT22;49035;48.812;11.762;2023-04-03T06:38:55;4.00;99.90
22161;DHT22;49035;48.812;11.762;2023-04-03T06:41:20;4.10;99.90
22161;DHT22;49035;48.812;11.762;2023-04-03T06:43:46;4.20;99.90
22161;DHT22;49035;48.812;11.762;2023-04-03T06:46:22;4.10;99.90
22161;DHT22;49035;48.812;11.762;2023-04-03T06:48:48;4.20;99.90
22161;DHT22;49035;48.812;11.762;2023-04-03T06:51:18;4.30;99.90
22161;DHT22;49035;48.812;11.762;2023-04-03T06:53:44;4.30;99.90
22161;DHT22;49035;48.812;11.762;2023-04-03T06:56:10;4.30;99.90
22161;DHT22;49035;48.812;11.762;2023-04-03T06:58:36;4.40;99.90
22161;DHT22;49035;48.812;11.762;2023-04-03T07:01:02;4.30;99.90
22161;DHT22;49035;48.812;11.762;2023-04-03T07:03:27;4.30;99.90
22161;DHT22;49035;48.812;11.762;2023-04-03T07:05:53;4.30;99.90
22161;DHT22;49035;48.812;11.762;2023-04-03T07:08:18;4.40;99.90
22161;DHT22;49035;48.812;11.762;2023-04-03T07:10:44;4.60;99.90
22161;DHT22;49035;48.812;11.762;2023-04-03T07:13:10;4.70;99.90
22161;DHT22;49035;48.812;11.762;2023-04-03T07:15:36;4.90;99.90
22161;DHT22;49035;48.812;11.762;2023-04-03T07:18:02;4.90;99.90
22161;DHT22;49035;48.812;11.762;2023-04-03T07:20:28;4.90;99.90
22161;DHT22;49035;48.812;11.762;2023-04-03T07:22:53;4.90;99.90
22161;DHT22;49035;48.812;11.762;2023-04-03T07:25:19;5.00;99.90
22161;DHT22;49035;48.812;11.762;2023-04-03T07:27:45;5.20;99.90
22161;DHT22;49035;48.812;11.762;2023-04-03T07:30:11;5.10;99.90
22161;DHT22;49035;48.812;11.762;2023-04-03T07:32:36;5.10;99.90
22161;DHT22;49035;48.812;11.762;2023-04-03T07:35:03;5.40;99.90
22161;DHT22;49035;48.812;11.762;2023-04-03T07:37:28;5.30;99.90
22161;DHT22;49035;48.812;11.762;2023-04-03T07:39:54;5.30;99.90
22161;DHT22;49035;48.812;11.762;2023-04-03T07:42:20;5.40;99.90
22161;DHT22;49035;48.812;11.762;2023-04-03T07:44:46;5.50;99.90
22161;DHT22;49035;48.812;11.762;2023-04-03T07:47:12;5.50;99.90
22161;DHT22;49035;48.812;11.762;2023-04-03T07:49:39;5.40;99.90
22161;DHT22;49035;48.812;11.762;2023-04-03T07:52:06;5.20;99.90
22161;DHT22;49035;48.812;11.762;2023-04-03T07:54:32;5.30;99.90
22161;DHT22;49035;48.812;11.762;2023-04-03T07:56:59;5.40;99.90
22161;DHT22;49035;48.812;11.762;2023-04-03T07:59:24;5.40;99.90
22161;DHT22;49035;48.812;11.762;2023-04-03T08:01:50;5.30;99.90
22161;DHT22;49035;48.812;11.762;2023-04-03T08:04:16;5.30;99.90
22161;DHT22;49035;48.812;11.762;2023-04-03T08:06:41;5.40;99.90
22161;DHT22;49035;48.812;11.762;2023-04-03T08:09:07;5.80;99.90
22161;DHT22;49035;48.812;11.762;2023-04-03T08:11:33;5.90;99.90
22161;DHT22;49035;48.812;11.762;2023-04-03T08:13:59;6.00;99.70
22161;DHT22;49035;48.812;11.762;2023-04-03T08:16:25;6.00;99.90
22161;DHT22;49035;48.812;11.762;2023-04-03T08:18:52;6.10;98.40
22161;DHT22;49035;48.812;11.762;2023-04-03T08:21:18;6.00;98.40
22161;DHT22;49035;48.812;11.762;2023-04-03T08:23:43;5.90;98.60
22161;DHT22;49035;48.812;11.762;2023-04-03T08:26:11;6.10;99.90
22161;DHT22;49035;48.812;11.762;2023-04-03T08:28:38;6.30;98.60
22161;DHT22;49035;48.812;11.762;2023-04-03T08:31:10;6.50;98.40
22161;DHT22;49035;48.812;11.762;2023-04-03T08:33:37;6.50;97.30
22161;DHT22;49035;48.812;11.762;2023-04-03T08:36:04;6.80;96.80
22161;DHT22;49035;48.812;11.762;2023-04-03T08:38:31;7.00;95.40
22161;DHT22;49035;48.812;11.762;2023-04-03T08:41:15;7.00;96.40
22161;DHT22;49035;48.812;11.762;2023-04-03T08:46:14;7.00;93.20
22161;DHT22;49035;48.812;11.762;2023-04-03T08:48:42;6.90;93.10
22161;DHT22;49035;48.812;11.762;2023-04-03T08:51:14;7.10;94.70
22161;DHT22;49035;48.812;11.762;2023-04-03T08:53:55;7.10;94.00
22161;DHT22;49035;48.812;11.762;2023-04-03T08:56:23;7.30;92.60
22161;DHT22;49035;48.812;11.762;2023-04-03T08:58:58;7.50;93.30
22161;DHT22;49035;48.812;11.762;2023-04-03T09:01:38;7.60;91.20
22161;DHT22;49035;48.812;11.762;2023-04-03T09:04:14;7.40;90.60
22161;DHT22;49035;48.812;11.762;2023-04-03T09:06:43;7.40;90.70
22161;DHT22;49035;48.812;11.762;2023-04-03T09:09:30;7.10;90.40
22161;DHT22;49035;48.812;11.762;2023-04-03T09:12:26;7.10;92.30
22161;DHT22;49035;48.812;11.762;2023-04-03T09:15:15;7.20;88.90
22161;DHT22;49035;48.812;11.762;2023-04-03T09:20:31;7.50;87.70
22161;DHT22;49035;48.812;11.762;2023-04-03T09:23:13;7.60;85.00
22161;DHT22;49035;48.812;11.762;2023-04-03T09:25:41;7.70;85.60
22161;DHT22;49035;48.812;11.762;2023-04-03T09:28:07;7.70;85.20
22161;DHT22;49035;48.812;11.762;2023-04-03T09:30:35;7.60;83.10
22161;DHT22;49035;48.812;11.762;2023-04-03T09:33:01;7.80;84.40
22161;DHT22;49035;48.812;11.762;2023-04-03T09:35:35;7.80;82.90
22161;DHT22;49035;48.812;11.762;2023-04-03T09:38:22;7.60;81.50
22161;DHT22;49035;48.812;11.762;2023-04-03T09:41:06;7.70;80.80
22161;DHT22;49035;48.812;11.762;2023-04-03T09:43:34;8.00;84.20
22161;DHT22;49035;48.812;11.762;2023-04-03T09:46:31;8.00;81.00
22161;DHT22;49035;48.812;11.762;2023-04-03T09:49:04;7.90;82.80
22161;DHT22;49035;48.812;11.762;2023-04-03T09:51:31;7.70;80.50
22161;DHT22;49035;48.812;11.762;2023-04-03T09:53:57;7.40;85.00
22161;DHT22;49035;48.812;11.762;2023-04-03T09:56:26;7.70;86.60
22161;DHT22;49035;48.812;11.762;2023-04-03T10:01:37;7.60;82.40
22161;DHT22;49035;48.812;11.762;2023-04-03T10:06:34;8.10;82.20
22161;DHT22;49035;48.812;11.762;2023-04-03T10:12:09;8.80;76.20
22161;DHT22;49035;48.812;11.762;2023-04-03T10:15:00;9.20;83.40
22161;DHT22;49035;48.812;11.762;2023-04-03T10:17:53;9.40;73.70
22161;DHT22;49035;48.812;11.762;2023-04-03T10:25:47;8.00;72.20
22161;DHT22;49035;48.812;11.762;2023-04-03T10:28:45;7.70;75.10
22161;DHT22;49035;48.812;11.762;2023-04-03T10:31:22;7.40;74.30
22161;DHT22;49035;48.812;11.762;2023-04-03T10:42:48;7.20;75.70
22161;DHT22;49035;48.812;11.762;2023-04-03T10:45:28;7.30;73.10
22161;DHT22;49035;48.812;11.762;2023-04-03T10:50:43;7.40;72.30
22161;DHT22;49035;48.812;11.762;2023-04-03T10:56:24;7.80;73.90
22161;DHT22;49035;48.812;11.762;2023-04-03T10:59:28;7.70;71.40
22161;DHT22;49035;48.812;11.762;2023-04-03T11:01:59;7.50;73.80
22161;DHT22;49035;48.812;11.762;2023-04-03T11:04:28;7.20;72.80
22161;DHT22;49035;48.812;11.762;2023-04-03T11:07:08;6.90;70.80
22161;DHT22;49035;48.812;11.762;2023-04-03T11:09:37;6.60;71.50
22161;DHT22;49035;48.812;11.762;2023-04-03T11:12:15;6.30;76.90
22161;DHT22;49035;48.812;11.762;2023-04-03T11:14:42;6.10;75.10
22161;DHT22;49035;48.812;11.762;2023-04-03T11:20:22;6.20;75.00
22161;DHT22;49035;48.812;11.762;2023-04-03T11:22:50;6.40;74.40
22161;DHT22;49035;48.812;11.762;2023-04-03T11:25:22;7.30;76.20
22161;DHT22;49035;48.812;11.762;2023-04-03T11:27:57;8.00;71.70
22161;DHT22;49035;48.812;11.762;2023-04-03T11:30:50;8.10;70.30
22161;DHT22;49035;48.812;11.762;2023-04-03T11:36:04;7.60;66.10
22161;DHT22;49035;48.812;11.762;2023-04-03T11:38:42;8.20;63.50
22161;DHT22;49035;48.812;11.762;2023-04-03T11:41:09;8.40;63.50
22161;DHT22;49035;48.812;11.762;2023-04-03T11:43:41;8.10;65.80
22161;DHT22;49035;48.812;11.762;2023-04-03T11:46:08;7.80;63.20
22161;DHT22;49035;48.812;11.762;2023-04-03T11:53:37;7.70;65.30
22161;DHT22;49035;48.812;11.762;2023-04-03T12:04:22;8.80;63.10
22161;DHT22;49035;48.812;11.762;2023-04-03T12:06:49;8.60;67.20
22161;DHT22;49035;48.812;11.762;2023-04-03T12:12:34;7.40;58.80
22161;DHT22;49035;48.812;11.762;2023-04-03T12:15:22;7.60;60.20
22161;DHT22;49035;48.812;11.762;2023-04-03T12:17:48;7.70;62.70
22161;DHT22;49035;48.812;11.762;2023-04-03T12:23:34;7.60;60.00
22161;DHT22;49035;48.812;11.762;2023-04-03T12:26:19;7.60;57.20
22161;DHT22;49035;48.812;11.762;2023-04-03T12:28:48;7.90;60.40
22161;DHT22;49035;48.812;11.762;2023-04-03T12:31:15;8.20;62.50
22161;DHT22;49035;48.812;11.762;2023-04-03T12:34:17;8.10;63.00
22161;DHT22;49035;48.812;11.762;2023-04-03T12:40:31;8.20;63.40
22161;DHT22;49035;48.812;11.762;2023-04-03T12:45:27;8.70;65.00
22161;DHT22;49035;48.812;11.762;2023-04-03T12:47:55;8.50;60.30
22161;DHT22;49035;48.812;11.762;2023-04-03T12:53:11;7.30;59.30
22161;DHT22;49035;48.812;11.762;2023-04-03T12:55:38;7.40;62.50
22161;DHT22;49035;48.812;11.762;2023-04-03T12:58:21;7.30;63.00
22161;DHT22;49035;48.812;11.762;2023-04-03T13:01:02;7.60;64.60
22161;DHT22;49035;48.812;11.762;2023-04-03T13:03:29;7.90;63.00
22161;DHT22;49035;48.812;11.762;2023-04-03T13:06:00;7.90;59.70
22161;DHT22;49035;48.812;11.762;2023-04-03T13:08:27;8.10;60.80
22161;DHT22;49035;48.812;11.762;2023-04-03T13:11:10;8.40;58.70
22161;DHT22;49035;48.812;11.762;2023-04-03T13:13:37;8.50;61.70
22161;DHT22;49035;48.812;11.762;2023-04-03T13:16:11;8.90;64.00
22161;DHT22;49035;48.812;11.762;2023-04-03T13:18:39;8.60;61.40
22161;DHT22;49035;48.812;11.762;2023-04-03T13:21:07;8.00;63.30
22161;DHT22;49035;48.812;11.762;2023-04-03T13:23:39;7.30;61.30
22161;DHT22;49035;48.812;11.762;2023-04-03T13:26:06;7.20;64.30
22161;DHT22;49035;48.812;11.762;2023-04-03T13:28:33;7.60;63.90
22161;DHT22;49035;48.812;11.762;2023-04-03T13:31:08;8.00;64.00
22161;DHT22;49035;48.812;11.762;2023-04-03T13:34:13;8.00;63.90
22161;DHT22;49035;48.812;11.762;2023-04-03T13:36:46;8.00;65.90
22161;DHT22;49035;48.812;11.762;2023-04-03T13:39:25;8.00;61.50
22161;DHT22;49035;48.812;11.762;2023-04-03T13:41:53;7.80;60.80
22161;DHT22;49035;48.812;11.762;2023-04-03T13:46:52;7.30;60.60
22161;DHT22;49035;48.812;11.762;2023-04-03T13:52:32;7.60;59.10
22161;DHT22;49035;48.812;11.762;2023-04-03T14:06:05;7.60;58.30
22161;DHT22;49035;48.812;11.762;2023-04-03T14:08:31;7.60;61.70
22161;DHT22;49035;48.812;11.762;2023-04-03T14:10:57;7.50;59.10
22161;DHT22;49035;48.812;11.762;2023-04-03T14:13:23;7.20;63.10
22161;DHT22;49035;48.812;11.762;2023-04-03T14:15:49;7.60;64.20
22161;DHT22;49035;48.812;11.762;2023-04-03T14:18:18;8.00;63.20
22161;DHT22;49035;48.812;11.762;2023-04-03T14:20:45;8.10;62.40
22161;DHT22;49035;48.812;11.762;2023-04-03T14:23:10;7.90;61.30
22161;DHT22;49035;48.812;11.762;2023-04-03T14:25:37;8.00;65.00
22161;DHT22;49035;48.812;11.762;2023-04-03T14:28:14;8.00;60.10
22161;DHT22;49035;48.812;11.762;2023-04-03T14:30:41;7.70;59.40
22161;DHT22;49035;48.812;11.762;2023-04-03T14:33:09;7.10;58.70
22161;DHT22;49035;48.812;11.762;2023-04-03T14:35:36;7.20;61.20
22161;DHT22;49035;48.812;11.762;2023-04-03T14:38:02;7.10;59.80
22161;DHT22;49035;48.812;11.762;2023-04-03T14:40:31;7.00;60.00
22161;DHT22;49035;48.812;11.762;2023-04-03T14:42:56;7.20;62.50
22161;DHT22;49035;48.812;11.762;2023-04-03T14:45:23;7.30;62.10
22161;DHT22;49035;48.812;11.762;2023-04-03T14:47:52;7.50;64.40
22161;DHT22;49035;48.812;11.762;2023-04-03T14:50:23;7.70;64.40
22161;DHT22;49035;48.812;11.762;2023-04-03T14:52:51;7.80;63.90
22161;DHT22;49035;48.812;11.762;2023-04-03T14:55:18;8.00;59.70
22161;DHT22;49035;48.812;11.762;2023-04-03T14:57:44;7.70;59.10
22161;DHT22;49035;48.812;11.762;2023-04-03T15:00:16;7.20;59.70
22161;DHT22;49035;48.812;11.762;2023-04-03T15:02:42;6.80;60.80
22161;DHT22;49035;48.812;11.762;2023-04-03T15:05:09;6.40;62.30
22161;DHT22;49035;48.812;11.762;2023-04-03T15:07:38;6.50;66.50
22161;DHT22;49035;48.812;11.762;2023-04-03T15:12:39;7.80;62.60
22161;DHT22;49035;48.812;11.762;2023-04-03T15:15:06;8.40;63.00
22161;DHT22;49035;48.812;11.762;2023-04-03T15:17:32;8.00;60.20
22161;DHT22;49035;48.812;11.762;2023-04-03T15:19:59;7.70;63.40
22161;DHT22;49035;48.812;11.762;2023-04-03T15:22:24;7.20;62.00
22161;DHT22;49035;48.812;11.762;2023-04-03T15:24:50;6.90;63.80
22161;DHT22;49035;48.812;11.762;2023-04-03T15:27:16;6.60;64.80
22161;DHT22;49035;48.812;11.762;2023-04-03T15:29:43;6.30;65.70
22161;DHT22;49035;48.812;11.762;2023-04-03T15:32:09;6.10;69.60
22161;DHT22;49035;48.812;11.762;2023-04-03T15:34:36;6.10;67.60
22161;DHT22;49035;48.812;11.762;2023-04-03T15:37:01;6.20;67.20
22161;DHT22;49035;48.812;11.762;2023-04-03T15:39:27;6.70;68.00
22161;DHT22;49035;48.812;11.762;2023-04-03T15:41:54;6.90;63.60
22161;DHT22;49035;48.812;11.762;2023-04-03T15:44:20;6.90;62.10
22161;DHT22;49035;48.812;11.762;2023-04-03T15:46:47;6.90;63.50
22161;DHT22;49035;48.812;11.762;2023-04-03T15:49:18;6.80;60.70
22161;DHT22;49035;48.812;11.762;2023-04-03T15:51:44;6.40;61.10
22161;DHT22;49035;48.812;11.762;2023-04-03T15:54:10;6.10;62.30
22161;DHT22;49035;48.812;11.762;2023-04-03T15:56:36;5.90;65.00
22161;DHT22;49035;48.812;11.762;2023-04-03T15:59:01;5.70;67.60
22161;DHT22;49035;48.812;11.762;2023-04-03T16:01:27;5.60;68.50
22161;DHT22;49035;48.812;11.762;2023-04-03T16:03:53;5.50;68.30
22161;DHT22;49035;48.812;11.762;2023-04-03T16:06:19;5.50;69.30
22161;DHT22;49035;48.812;11.762;2023-04-03T16:08:46;5.60;68.70
22161;DHT22;49035;48.812;11.762;2023-04-03T16:11:12;5.80;65.50
22161;DHT22;49035;48.812;11.762;2023-04-03T16:13:38;5.80;65.80
22161;DHT22;49035;48.812;11.762;2023-04-03T16:16:04;5.90;68.40
22161;DHT22;49035;48.812;11.762;2023-04-03T16:18:31;5.90;65.30
22161;DHT22;49035;48.812;11.762;2023-04-03T16:20:56;5.80;65.70
22161;DHT22;49035;48.812;11.762;2023-04-03T16:23:22;5.90;66.60
22161;DHT22;49035;48.812;11.762;2023-04-03T16:25:48;5.70;64.80
22161;DHT22;49035;48.812;11.762;2023-04-03T16:28:15;5.70;66.40
22161;DHT22;49035;48.812;11.762;2023-04-03T16:30:44;5.60;65.70
22161;DHT22;49035;48.812;11.762;2023-04-03T16:33:10;5.60;68.50
22161;DHT22;49035;48.812;11.762;2023-04-03T16:35:36;5.60;68.10
22161;DHT22;49035;48.812;11.762;2023-04-03T16:38:02;5.80;68.50
22161;DHT22;49035;48.812;11.762;2023-04-03T16:40:28;5.90;69.20
22161;DHT22;49035;48.812;11.762;2023-04-03T16:42:53;5.80;65.10
22161;DHT22;49035;48.812;11.762;2023-04-03T16:45:19;5.40;66.50
22161;DHT22;49035;48.812;11.762;2023-04-03T16:47:45;5.20;67.20
22161;DHT22;49035;48.812;11.762;2023-04-03T16:50:10;5.00;68.70
22161;DHT22;49035;48.812;11.762;2023-04-03T16:52:36;4.80;69.10
22161;DHT22;49035;48.812;11.762;2023-04-03T16:55:02;4.70;69.30
22161;DHT22;49035;48.812;11.762;2023-04-03T16:57:27;4.50;69.90
22161;DHT22;49035;48.812;11.762;2023-04-03T16:59:54;4.40;70.90
22161;DHT22;49035;48.812;11.762;2023-04-03T17:02:21;4.30;72.50
22161;DHT22;49035;48.812;11.762;2023-04-03T17:04:50;4.20;73.40
22161;DHT22;49035;48.812;11.762;2023-04-03T17:07:17;4.10;75.10
22161;DHT22;49035;48.812;11.762;2023-04-03T17:09:42;4.10;75.20